createdAt,value
2019-01-12T00:00:54.491Z,1001.7
2019-01-12T00:01:55.858Z,1001.7
2019-01-12T00:02:57.258Z,1001.8
2019-01-12T00:03:58.620Z,1001.7
2019-01-12T00:05:00.023Z,1001.8
2019-01-12T00:06:01.381Z,1001.7
2019-01-12T00:07:02.793Z,1001.8
2019-01-12T00:08:04.136Z,1001.7
2019-01-12T00:09:05.506Z,1001.8
2019-01-12T00:10:06.875Z,1001.8
2019-01-12T00:11:08.241Z,1001.8
2019-01-12T00:12:09.612Z,1001.8
2019-01-12T00:13:10.973Z,1001.8
2019-01-12T00:14:12.371Z,1001.8
2019-01-12T00:15:13.730Z,1001.7
2019-01-12T00:16:15.107Z,1001.7
2019-01-12T00:17:16.475Z,1001.8
2019-01-12T00:18:17.876Z,1001.8
2019-01-12T00:19:19.273Z,1001.8
2019-01-12T00:20:20.603Z,1001.8
2019-01-12T00:21:21.967Z,1001.8
2019-01-12T00:22:23.335Z,1001.8
2019-01-12T00:23:24.704Z,1001.8
2019-01-12T00:24:31.540Z,1001.8
2019-01-12T00:25:27.410Z,1001.9
2019-01-12T00:26:28.788Z,1001.8
2019-01-12T00:27:30.155Z,1001.9
2019-01-12T00:28:31.529Z,1001.8
2019-01-12T00:29:32.910Z,1001.8
2019-01-12T00:30:34.280Z,1001.8
2019-01-12T00:31:35.681Z,1001.8
2019-01-12T00:32:37.048Z,1001.9
2019-01-12T00:33:38.756Z,1001.9
2019-01-12T00:34:40.119Z,1001.9
2019-01-12T00:35:41.485Z,1001.9
2019-01-12T00:36:42.878Z,1001.9
2019-01-12T00:37:44.260Z,1001.9
2019-01-12T00:38:45.629Z,1001.9
2019-01-12T00:39:46.993Z,1001.9
2019-01-12T00:40:48.362Z,1001.9
2019-01-12T00:41:49.731Z,1001.9
2019-01-12T00:42:51.100Z,1001.9
2019-01-12T00:43:52.467Z,1001.9
2019-01-12T00:44:53.835Z,1001.9
2019-01-12T00:45:55.201Z,1001.9
2019-01-12T00:46:56.567Z,1001.9
2019-01-12T00:47:57.936Z,1001.9
2019-01-12T00:48:59.313Z,1001.9
2019-01-12T00:50:00.678Z,1001.9
2019-01-12T00:51:02.078Z,1001.8
2019-01-12T00:52:03.464Z,1001.9
2019-01-12T00:53:04.850Z,1001.9
2019-01-12T00:54:06.223Z,1001.8
2019-01-12T00:55:07.599Z,1001.8
2019-01-12T00:56:08.964Z,1001.8
2019-01-12T00:57:10.354Z,1001.8
2019-01-12T00:58:11.742Z,1001.8
2019-01-12T00:59:13.109Z,1001.8
2019-01-12T01:00:14.469Z,1001.8
2019-01-12T01:01:16.335Z,1001.8
2019-01-12T01:02:17.704Z,1001.8
2019-01-12T01:03:19.123Z,1001.8
2019-01-12T01:04:20.455Z,1001.9
2019-01-12T01:05:21.818Z,1001.9
2019-01-12T01:06:23.187Z,1001.9
2019-01-12T01:07:24.556Z,1001.9
2019-01-12T01:08:25.918Z,1001.9
2019-01-12T01:09:27.283Z,1001.9
2019-01-12T01:10:28.658Z,1002.0
2019-01-12T01:11:30.500Z,1001.9
2019-01-12T01:12:31.869Z,1001.9
2019-01-12T01:13:33.252Z,1002.0
2019-01-12T01:14:34.605Z,1001.9
2019-01-12T01:15:36.514Z,1002.0
2019-01-12T01:16:37.879Z,1001.9
2019-01-12T01:17:39.243Z,1001.9
2019-01-12T01:18:40.614Z,1001.9
2019-01-12T01:19:41.984Z,1002.0
2019-01-12T01:20:43.349Z,1001.9
2019-01-12T01:21:44.730Z,1002.0
2019-01-12T01:22:46.094Z,1002.0
2019-01-12T01:23:47.471Z,1002.0
2019-01-12T01:24:48.847Z,1002.0
2019-01-12T01:25:50.217Z,1002.0
2019-01-12T01:26:51.585Z,1002.0
2019-01-12T01:27:52.951Z,1002.0
2019-01-12T01:28:54.321Z,1002.0
2019-01-12T01:29:55.685Z,1002.0
2019-01-12T01:30:57.052Z,1002.0
2019-01-12T01:31:58.424Z,1002.0
2019-01-12T01:32:59.791Z,1002.0
2019-01-12T01:34:01.166Z,1002.0
2019-01-12T01:35:02.548Z,1002.0
2019-01-12T01:36:03.926Z,1002.0
2019-01-12T01:37:05.286Z,1002.0
2019-01-12T01:38:06.649Z,1002.1
2019-01-12T01:39:08.069Z,1002.1
2019-01-12T01:40:09.456Z,1002.1
2019-01-12T01:41:10.842Z,1002.1
2019-01-12T01:42:12.216Z,1002.1
2019-01-12T01:43:13.583Z,1002.1
2019-01-12T01:44:14.976Z,1002.1
2019-01-12T01:45:16.350Z,1002.1
2019-01-12T01:46:17.714Z,1002.1
2019-01-12T01:47:19.092Z,1002.1
2019-01-12T01:48:20.455Z,1002.1
2019-01-12T01:49:21.828Z,1002.1
2019-01-12T01:50:23.200Z,1002.1
2019-01-12T01:51:24.568Z,1002.1
2019-01-12T01:52:25.934Z,1002.2
2019-01-12T01:53:27.309Z,1002.2
2019-01-12T01:54:28.679Z,1002.2
2019-01-12T01:55:30.045Z,1002.1
2019-01-12T01:56:31.421Z,1002.1
2019-01-12T01:57:32.789Z,1002.2
2019-01-12T01:58:34.237Z,1002.1
2019-01-12T01:59:35.596Z,1002.2
2019-01-12T02:00:36.974Z,1002.1
2019-01-12T02:01:38.338Z,1002.2
2019-01-12T02:02:39.720Z,1002.1
2019-01-12T02:03:41.091Z,1002.1
2019-01-12T02:04:42.477Z,1002.1
2019-01-12T02:05:43.830Z,1002.1
2019-01-12T02:06:45.217Z,1002.1
2019-01-12T02:07:46.586Z,1002.1
2019-01-12T02:08:47.969Z,1002.2
2019-01-12T02:09:49.346Z,1002.1
2019-01-12T02:10:50.722Z,1002.1
2019-01-12T02:11:52.122Z,1002.1
2019-01-12T02:12:53.484Z,1002.1
2019-01-12T02:13:54.873Z,1002.1
2019-01-12T02:14:56.246Z,1002.1
2019-01-12T02:15:57.616Z,1002.1
2019-01-12T02:16:58.982Z,1002.1
2019-01-12T02:18:00.369Z,1002.1
2019-01-12T02:19:01.740Z,1002.1
2019-01-12T02:20:03.169Z,1002.1
2019-01-12T02:21:04.541Z,1002.1
2019-01-12T02:22:05.900Z,1002.1
2019-01-12T02:23:07.267Z,1002.1
2019-01-12T02:24:08.631Z,1002.1
2019-01-12T02:25:10.016Z,1002.1
2019-01-12T02:26:11.378Z,1002.1
2019-01-12T02:27:12.737Z,1002.1
2019-01-12T02:28:14.130Z,1002.2
2019-01-12T02:29:15.487Z,1002.2
2019-01-12T02:30:16.857Z,1002.2
2019-01-12T02:31:18.225Z,1002.2
2019-01-12T02:32:19.589Z,1002.2
2019-01-12T02:33:20.961Z,1002.2
2019-01-12T02:34:22.327Z,1002.2
2019-01-12T02:35:23.703Z,1002.2
2019-01-12T02:36:25.055Z,1002.2
2019-01-12T02:37:26.446Z,1002.2
2019-01-12T02:38:27.812Z,1002.3
2019-01-12T02:39:29.177Z,1002.2
2019-01-12T02:40:30.592Z,1002.2
2019-01-12T02:41:31.960Z,1002.2
2019-01-12T02:42:33.322Z,1002.2
2019-01-12T02:43:34.694Z,1002.2
2019-01-12T02:44:36.053Z,1002.1
2019-01-12T02:45:37.424Z,1002.1
2019-01-12T02:46:38.808Z,1002.1
2019-01-12T02:47:40.170Z,1002.1
2019-01-12T02:48:41.546Z,1002.0
2019-01-12T02:49:42.919Z,1002.1
2019-01-12T02:50:44.285Z,1002.0
2019-01-12T02:51:45.660Z,1002.1
2019-01-12T02:52:47.031Z,1002.1
2019-01-12T02:53:48.413Z,1002.1
2019-01-12T02:54:49.773Z,1002.1
2019-01-12T02:55:51.135Z,1002.1
2019-01-12T02:56:52.506Z,1002.1
2019-01-12T02:57:53.877Z,1002.1
2019-01-12T02:58:55.242Z,1002.0
2019-01-12T02:59:56.613Z,1002.0
2019-01-12T03:00:58.037Z,1002.0
2019-01-12T03:01:59.426Z,1002.0
2019-01-12T03:03:00.806Z,1002.0
2019-01-12T03:04:02.173Z,1002.0
2019-01-12T03:05:03.541Z,1002.0
2019-01-12T03:06:04.911Z,1002.0
2019-01-12T03:07:06.279Z,1002.0
2019-01-12T03:08:07.645Z,1002.0
2019-01-12T03:09:09.018Z,1002.0
2019-01-12T03:10:10.395Z,1002.0
2019-01-12T03:11:11.764Z,1002.0
2019-01-12T03:12:13.124Z,1002.0
2019-01-12T03:13:14.497Z,1002.0
2019-01-12T03:14:15.929Z,1002.0
2019-01-12T03:15:17.350Z,1001.9
2019-01-12T03:16:18.722Z,1001.9
2019-01-12T03:17:20.109Z,1001.9
2019-01-12T03:18:21.469Z,1001.9
2019-01-12T03:19:22.864Z,1001.9
2019-01-12T03:20:24.231Z,1001.9
2019-01-12T03:21:25.597Z,1001.9
2019-01-12T03:22:26.977Z,1001.9
2019-01-12T03:23:28.348Z,1001.9
2019-01-12T03:24:29.706Z,1001.8
2019-01-12T03:25:31.080Z,1001.8
2019-01-12T03:26:32.459Z,1001.9
2019-01-12T03:27:33.829Z,1001.9
2019-01-12T03:28:35.199Z,1001.8
2019-01-12T03:29:36.579Z,1001.8
2019-01-12T03:30:37.948Z,1001.8
2019-01-12T03:31:39.311Z,1001.8
2019-01-12T03:32:40.698Z,1001.8
2019-01-12T03:33:42.058Z,1001.8
2019-01-12T03:34:43.425Z,1001.9
2019-01-12T03:35:44.798Z,1001.8
2019-01-12T03:36:46.178Z,1001.9
2019-01-12T03:37:47.552Z,1001.9
2019-01-12T03:38:48.915Z,1001.9
2019-01-12T03:39:50.287Z,1001.9
2019-01-12T03:40:51.652Z,1001.8
2019-01-12T03:41:53.014Z,1001.8
2019-01-12T03:42:54.397Z,1001.8
2019-01-12T03:43:55.770Z,1001.8
2019-01-12T03:44:57.135Z,1001.8
2019-01-12T03:45:58.503Z,1001.8
2019-01-12T03:46:59.884Z,1001.8
2019-01-12T03:48:01.258Z,1001.8
2019-01-12T03:49:02.634Z,1001.8
2019-01-12T03:50:04.007Z,1001.8
2019-01-12T03:51:05.371Z,1001.8
2019-01-12T03:52:06.741Z,1001.7
2019-01-12T03:53:08.108Z,1001.7
2019-01-12T03:54:09.476Z,1001.7
2019-01-12T03:55:10.836Z,1001.7
2019-01-12T03:56:12.217Z,1001.7
2019-01-12T03:57:13.579Z,1001.7
2019-01-12T03:58:14.945Z,1001.7
2019-01-12T03:59:16.347Z,1001.7
2019-01-12T04:00:17.730Z,1001.7
2019-01-12T04:01:19.101Z,1001.7
2019-01-12T04:02:20.481Z,1001.7
2019-01-12T04:03:21.857Z,1001.7
2019-01-12T04:04:23.238Z,1001.6
2019-01-12T04:05:24.598Z,1001.6
2019-01-12T04:06:25.967Z,1001.6
2019-01-12T04:07:27.330Z,1001.6
2019-01-12T04:08:28.696Z,1001.6
2019-01-12T04:09:30.061Z,1001.6
2019-01-12T04:10:31.451Z,1001.6
2019-01-12T04:11:32.820Z,1001.6
2019-01-12T04:12:34.187Z,1001.6
2019-01-12T04:13:35.560Z,1001.6
2019-01-12T04:14:36.924Z,1001.5
2019-01-12T04:15:38.290Z,1001.4
2019-01-12T04:16:39.651Z,1001.5
2019-01-12T04:17:41.022Z,1001.5
2019-01-12T04:18:42.392Z,1001.5
2019-01-12T04:19:43.753Z,1001.5
2019-01-12T04:20:45.119Z,1001.5
2019-01-12T04:21:46.486Z,1001.5
2019-01-12T04:22:47.852Z,1001.5
2019-01-12T04:23:49.217Z,1001.5
2019-01-12T04:24:50.587Z,1001.5
2019-01-12T04:25:51.948Z,1001.5
2019-01-12T04:26:53.311Z,1001.5
2019-01-12T04:27:54.680Z,1001.5
2019-01-12T04:28:56.046Z,1001.5
2019-01-12T04:29:57.407Z,1001.4
2019-01-12T04:30:58.778Z,1001.4
2019-01-12T04:32:00.143Z,1001.4
2019-01-12T04:33:01.505Z,1001.4
2019-01-12T04:34:02.872Z,1001.4
2019-01-12T04:35:04.236Z,1001.4
2019-01-12T04:36:05.603Z,1001.4
2019-01-12T04:37:06.973Z,1001.4
2019-01-12T04:38:08.337Z,1001.4
2019-01-12T04:39:09.709Z,1001.4
2019-01-12T04:40:11.086Z,1001.4
2019-01-12T04:41:12.451Z,1001.4
2019-01-12T04:42:13.818Z,1001.4
2019-01-12T04:43:15.180Z,1001.4
2019-01-12T04:44:16.548Z,1001.4
2019-01-12T04:45:17.916Z,1001.3
2019-01-12T04:46:19.278Z,1001.4
2019-01-12T04:47:20.648Z,1001.4
2019-01-12T04:48:22.015Z,1001.5
2019-01-12T04:49:23.384Z,1001.4
2019-01-12T04:50:24.783Z,1001.4
2019-01-12T04:51:26.150Z,1001.4
2019-01-12T04:52:27.517Z,1001.4
2019-01-12T04:53:28.914Z,1001.4
2019-01-12T04:54:30.278Z,1001.4
2019-01-12T04:55:31.675Z,1001.4
2019-01-12T04:56:33.025Z,1001.4
2019-01-12T04:57:34.385Z,1001.5
2019-01-12T04:58:35.740Z,1001.4
2019-01-12T04:59:37.116Z,1001.5
2019-01-12T05:00:38.490Z,1001.5
2019-01-12T05:01:39.861Z,1001.4
2019-01-12T05:02:41.280Z,1001.4
2019-01-12T05:03:42.651Z,1001.4
2019-01-12T05:04:44.020Z,1001.4
2019-01-12T05:05:45.383Z,1001.4
2019-01-12T05:06:46.752Z,1001.5
2019-01-12T05:07:48.118Z,1001.4
2019-01-12T05:08:49.495Z,1001.4
2019-01-12T05:09:50.862Z,1001.4
2019-01-12T05:10:52.298Z,1001.5
2019-01-12T05:11:53.600Z,1001.4
2019-01-12T05:12:54.960Z,1001.4
2019-01-12T05:13:56.329Z,1001.4
2019-01-12T05:14:57.709Z,1001.4
2019-01-12T05:15:59.073Z,1001.4
2019-01-12T05:17:00.438Z,1001.4
2019-01-12T05:18:01.808Z,1001.4
2019-01-12T05:19:03.172Z,1001.4
2019-01-12T05:20:04.542Z,1001.4
2019-01-12T05:21:05.912Z,1001.4
2019-01-12T05:22:07.282Z,1001.4
2019-01-12T05:23:08.645Z,1001.4
2019-01-12T05:24:10.007Z,1001.4
2019-01-12T05:25:11.371Z,1001.4
2019-01-12T05:26:12.749Z,1001.4
2019-01-12T05:27:14.117Z,1001.4
2019-01-12T05:28:15.483Z,1001.3
2019-01-12T05:29:16.852Z,1001.3
2019-01-12T05:30:18.217Z,1001.4
2019-01-12T05:31:19.587Z,1001.3
2019-01-12T05:32:20.971Z,1001.3
2019-01-12T05:33:22.328Z,1001.3
2019-01-12T05:34:23.691Z,1001.2
2019-01-12T05:35:25.060Z,1001.3
2019-01-12T05:36:26.436Z,1001.2
2019-01-12T05:37:27.795Z,1001.2
2019-01-12T05:38:29.181Z,1001.2
2019-01-12T05:39:30.545Z,1001.2
2019-01-12T05:40:31.907Z,1001.3
2019-01-12T05:41:33.273Z,1001.3
2019-01-12T05:42:34.638Z,1001.2
2019-01-12T05:43:36.013Z,1001.3
2019-01-12T05:44:37.376Z,1001.3
2019-01-12T05:45:38.745Z,1001.3
2019-01-12T05:46:40.110Z,1001.3
2019-01-12T05:47:41.480Z,1001.4
2019-01-12T05:48:42.845Z,1001.3
2019-01-12T05:49:44.212Z,1001.4
2019-01-12T05:50:45.579Z,1001.4
2019-01-12T05:51:46.947Z,1001.4
2019-01-12T05:52:48.319Z,1001.4
2019-01-12T05:53:49.689Z,1001.4
2019-01-12T05:54:51.050Z,1001.4
2019-01-12T05:55:57.005Z,1001.4
2019-01-12T05:56:53.788Z,1001.5
2019-01-12T05:57:55.157Z,1001.4
2019-01-12T05:58:56.528Z,1001.4
2019-01-12T05:59:57.891Z,1001.5
2019-01-12T06:00:59.264Z,1001.4
2019-01-12T06:02:00.629Z,1001.4
2019-01-12T06:03:02.679Z,1001.4
2019-01-12T06:04:04.050Z,1001.5
2019-01-12T06:05:05.412Z,1001.4
2019-01-12T06:06:06.785Z,1001.4
2019-01-12T06:07:08.159Z,1001.4
2019-01-12T06:08:09.523Z,1001.4
2019-01-12T06:09:10.891Z,1001.4
2019-01-12T06:10:12.259Z,1001.4
2019-01-12T06:11:13.627Z,1001.4
2019-01-12T06:12:14.998Z,1001.5
2019-01-12T06:13:16.374Z,1001.4
2019-01-12T06:14:17.733Z,1001.4
2019-01-12T06:15:19.100Z,1001.4
2019-01-12T06:16:20.460Z,1001.5
2019-01-12T06:17:21.842Z,1001.5
2019-01-12T06:18:23.208Z,1001.5
2019-01-12T06:19:24.578Z,1001.5
2019-01-12T06:20:25.942Z,1001.5
2019-01-12T06:21:27.316Z,1001.5
2019-01-12T06:22:28.685Z,1001.4
2019-01-12T06:23:30.050Z,1001.5
2019-01-12T06:24:31.431Z,1001.5
2019-01-12T06:25:32.835Z,1001.5
2019-01-12T06:26:34.222Z,1001.5
2019-01-12T06:27:35.585Z,1001.5
2019-01-12T06:28:36.955Z,1001.5
2019-01-12T06:29:38.323Z,1001.5
2019-01-12T06:30:39.692Z,1001.5
2019-01-12T06:31:41.069Z,1001.5
2019-01-12T06:32:42.430Z,1001.5
2019-01-12T06:33:43.803Z,1001.5
2019-01-12T06:34:45.173Z,1001.5
2019-01-12T06:35:46.538Z,1001.5
2019-01-12T06:36:47.925Z,1001.5
2019-01-12T06:37:49.273Z,1001.5
2019-01-12T06:38:50.634Z,1001.5
2019-01-12T06:39:51.997Z,1001.5
2019-01-12T06:40:53.361Z,1001.5
2019-01-12T06:41:54.731Z,1001.5
2019-01-12T06:42:56.102Z,1001.5
2019-01-12T06:43:57.467Z,1001.5
2019-01-12T06:44:58.833Z,1001.5
2019-01-12T06:46:00.204Z,1001.6
2019-01-12T06:47:01.558Z,1001.6
2019-01-12T06:48:02.924Z,1001.6
2019-01-12T06:49:04.299Z,1001.5
2019-01-12T06:50:05.676Z,1001.6
2019-01-12T06:51:07.041Z,1001.6
2019-01-12T06:52:08.413Z,1001.6
2019-01-12T06:53:09.785Z,1001.6
2019-01-12T06:54:11.157Z,1001.6
2019-01-12T06:55:12.523Z,1001.6
2019-01-12T06:56:13.893Z,1001.6
2019-01-12T06:57:15.263Z,1001.6
2019-01-12T06:58:16.631Z,1001.6
2019-01-12T06:59:18.009Z,1001.6
2019-01-12T07:00:19.364Z,1001.6
2019-01-12T07:01:20.754Z,1001.6
2019-01-12T07:02:22.124Z,1001.6
2019-01-12T07:03:23.495Z,1001.7
2019-01-12T07:04:24.862Z,1001.7
2019-01-12T07:05:26.226Z,1001.6
2019-01-12T07:06:27.594Z,1001.7
2019-01-12T07:07:28.955Z,1001.6
2019-01-12T07:08:30.329Z,1001.6
2019-01-12T07:09:31.709Z,1001.6
2019-01-12T07:10:33.091Z,1001.5
2019-01-12T07:11:35.940Z,1001.6
2019-01-12T07:12:35.798Z,1001.6
2019-01-12T07:13:37.175Z,1001.6
2019-01-12T07:14:38.544Z,1001.6
2019-01-12T07:15:39.912Z,1001.6
2019-01-12T07:16:41.277Z,1001.6
2019-01-12T07:17:42.652Z,1001.6
2019-01-12T07:18:44.043Z,1001.6
2019-01-12T07:19:45.393Z,1001.6
2019-01-12T07:20:46.760Z,1001.7
2019-01-12T07:21:48.123Z,1001.6
2019-01-12T07:22:49.487Z,1001.6
2019-01-12T07:23:50.864Z,1001.6
2019-01-12T07:24:52.227Z,1001.7
2019-01-12T07:25:53.609Z,1001.6
2019-01-12T07:26:54.975Z,1001.7
2019-01-12T07:27:56.336Z,1001.6
2019-01-12T07:28:57.716Z,1001.6
2019-01-12T07:29:59.088Z,1001.7
2019-01-12T07:31:00.455Z,1001.7
2019-01-12T07:32:01.864Z,1001.7
2019-01-12T07:33:03.212Z,1001.7
2019-01-12T07:34:04.597Z,1001.7
2019-01-12T07:35:05.956Z,1001.7
2019-01-12T07:36:07.336Z,1001.7
2019-01-12T07:37:08.710Z,1001.7
2019-01-12T07:38:10.078Z,1001.7
2019-01-12T07:39:11.458Z,1001.7
2019-01-12T07:40:12.838Z,1001.7
2019-01-12T07:41:14.194Z,1001.7
2019-01-12T07:42:15.570Z,1001.7
2019-01-12T07:43:16.935Z,1001.7
2019-01-12T07:44:18.305Z,1001.7
2019-01-12T07:45:19.674Z,1001.7
2019-01-12T07:46:21.049Z,1001.7
2019-01-12T07:47:22.415Z,1001.7
2019-01-12T07:48:23.800Z,1001.7
2019-01-12T07:49:25.164Z,1001.7
2019-01-12T07:50:26.535Z,1001.7
2019-01-12T07:51:27.897Z,1001.7
2019-01-12T07:52:29.267Z,1001.8
2019-01-12T07:53:30.677Z,1001.7
2019-01-12T07:54:32.000Z,1001.8
2019-01-12T07:55:33.369Z,1001.7
2019-01-12T07:56:34.737Z,1001.8
2019-01-12T07:57:36.111Z,1001.8
2019-01-12T07:58:37.468Z,1001.8
2019-01-12T07:59:38.866Z,1001.9
2019-01-12T08:00:40.259Z,1001.9
2019-01-12T08:01:41.632Z,1001.9
2019-01-12T08:02:43.015Z,1001.9
2019-01-12T08:03:44.393Z,1001.8
2019-01-12T08:04:45.759Z,1001.8
2019-01-12T08:05:47.128Z,1001.9
2019-01-12T08:06:48.509Z,1001.9
2019-01-12T08:07:49.900Z,1001.9
2019-01-12T08:08:51.275Z,1001.9
2019-01-12T08:09:52.653Z,1001.8
2019-01-12T08:10:54.748Z,1001.9
2019-01-12T08:11:56.114Z,1001.8
2019-01-12T08:12:57.479Z,1001.8
2019-01-12T08:13:58.846Z,1001.8
2019-01-12T08:15:00.263Z,1001.8
2019-01-12T08:16:01.589Z,1001.8
2019-01-12T08:17:02.967Z,1001.7
2019-01-12T08:18:04.333Z,1001.7
2019-01-12T08:19:05.706Z,1001.7
2019-01-12T08:20:07.079Z,1001.7
2019-01-12T08:21:08.469Z,1001.8
2019-01-12T08:22:09.865Z,1001.7
2019-01-12T08:23:11.235Z,1001.8
2019-01-12T08:24:12.590Z,1001.8
2019-01-12T08:25:13.974Z,1001.8
2019-01-12T08:26:15.339Z,1001.8
2019-01-12T08:27:16.704Z,1001.7
2019-01-12T08:28:18.072Z,1001.7
2019-01-12T08:29:19.467Z,1001.8
2019-01-12T08:30:20.832Z,1001.7
2019-01-12T08:31:22.203Z,1001.7
2019-01-12T08:32:23.626Z,1001.7
2019-01-12T08:33:24.996Z,1001.8
2019-01-12T08:34:26.365Z,1001.8
2019-01-12T08:35:27.738Z,1001.8
2019-01-12T08:36:29.106Z,1001.8
2019-01-12T08:37:30.499Z,1001.8
2019-01-12T08:38:31.915Z,1001.8
2019-01-12T08:39:33.291Z,1001.8
2019-01-12T08:40:34.657Z,1001.8
2019-01-12T08:41:36.021Z,1001.8
2019-01-12T08:42:37.391Z,1001.8
2019-01-12T08:43:38.760Z,1001.8
2019-01-12T08:44:40.130Z,1001.8
2019-01-12T08:45:41.494Z,1001.8
2019-01-12T08:46:42.858Z,1001.8
2019-01-12T08:47:44.227Z,1001.7
2019-01-12T08:48:45.601Z,1001.8
2019-01-12T08:49:46.968Z,1001.8
2019-01-12T08:50:48.334Z,1001.7
2019-01-12T08:51:49.703Z,1001.8
2019-01-12T08:52:51.084Z,1001.8
2019-01-12T08:53:52.446Z,1001.8
2019-01-12T08:54:53.817Z,1001.7
2019-01-12T08:55:55.184Z,1001.8
2019-01-12T08:56:56.554Z,1001.7
2019-01-12T08:57:57.920Z,1001.7
2019-01-12T08:58:59.280Z,1001.6
2019-01-12T09:00:00.671Z,1001.7
2019-01-12T09:01:02.024Z,1001.7
2019-01-12T09:02:03.390Z,1001.7
2019-01-12T09:03:04.767Z,1001.6
2019-01-12T09:04:06.136Z,1001.6
2019-01-12T09:05:07.506Z,1001.6
2019-01-12T09:06:08.877Z,1001.6
2019-01-12T09:07:10.259Z,1001.6
2019-01-12T09:08:11.630Z,1001.6
2019-01-12T09:09:12.997Z,1001.6
2019-01-12T09:10:14.367Z,1001.5
2019-01-12T09:11:15.734Z,1001.6
2019-01-12T09:12:17.109Z,1001.5
2019-01-12T09:13:18.472Z,1001.6
2019-01-12T09:14:19.853Z,1001.5
2019-01-12T09:15:21.233Z,1001.5
2019-01-12T09:16:22.604Z,1001.5
2019-01-12T09:17:23.968Z,1001.5
2019-01-12T09:18:25.334Z,1001.5
2019-01-12T09:19:26.740Z,1001.5
2019-01-12T09:20:28.072Z,1001.5
2019-01-12T09:21:29.451Z,1001.5
2019-01-12T09:22:30.812Z,1001.5
2019-01-12T09:23:32.181Z,1001.5
2019-01-12T09:24:33.552Z,1001.5
2019-01-12T09:25:34.921Z,1001.5
2019-01-12T09:26:36.297Z,1001.5
2019-01-12T09:27:37.666Z,1001.5
2019-01-12T09:28:39.045Z,1001.5
2019-01-12T09:29:40.414Z,1001.5
2019-01-12T09:30:48.299Z,1001.5
2019-01-12T09:31:43.141Z,1001.5
2019-01-12T09:32:44.522Z,1001.5
2019-01-12T09:33:45.897Z,1001.5
2019-01-12T09:34:47.287Z,1001.4
2019-01-12T09:35:48.658Z,1001.5
2019-01-12T09:36:50.024Z,1001.5
2019-01-12T09:37:51.395Z,1001.4
2019-01-12T09:38:52.762Z,1001.4
2019-01-12T09:39:54.122Z,1001.4
2019-01-12T09:40:55.491Z,1001.4
2019-01-12T09:41:56.869Z,1001.4
2019-01-12T09:42:58.246Z,1001.3
2019-01-12T09:43:59.604Z,1001.3
2019-01-12T09:45:00.974Z,1001.4
2019-01-12T09:46:02.346Z,1001.3
2019-01-12T09:47:03.712Z,1001.3
2019-01-12T09:48:05.097Z,1001.3
2019-01-12T09:49:06.467Z,1001.3
2019-01-12T09:50:07.840Z,1001.3
2019-01-12T09:51:09.227Z,1001.3
2019-01-12T09:52:10.594Z,1001.4
2019-01-12T09:53:11.961Z,1001.4
2019-01-12T09:54:13.332Z,1001.4
2019-01-12T09:55:14.702Z,1001.4
2019-01-12T09:56:16.078Z,1001.4
2019-01-12T09:57:17.449Z,1001.4
2019-01-12T09:58:18.819Z,1001.4
2019-01-12T09:59:20.188Z,1001.4
2019-01-12T10:00:21.812Z,1001.4
2019-01-12T10:01:23.262Z,1001.3
2019-01-12T10:02:24.650Z,1001.3
2019-01-12T10:03:26.001Z,1001.3
2019-01-12T10:04:27.366Z,1001.3
2019-01-12T10:05:28.737Z,1001.3
2019-01-12T10:06:30.101Z,1001.2
2019-01-12T10:07:31.458Z,1001.2
2019-01-12T10:08:32.833Z,1001.1
2019-01-12T10:09:34.198Z,1001.1
2019-01-12T10:10:35.560Z,1001.1
2019-01-12T10:11:36.935Z,1001.1
2019-01-12T10:12:38.309Z,1001.1
2019-01-12T10:13:39.684Z,1001.0
2019-01-12T10:14:41.058Z,1001.0
2019-01-12T10:15:42.419Z,1000.9
2019-01-12T10:16:43.800Z,1000.9
2019-01-12T10:17:45.347Z,1000.9
2019-01-12T10:18:46.557Z,1000.8
2019-01-12T10:19:48.178Z,1000.8
2019-01-12T10:20:49.827Z,1000.8
2019-01-12T10:21:51.209Z,1000.8
2019-01-12T10:22:52.572Z,1000.7
2019-01-12T10:23:53.929Z,1000.7
2019-01-12T10:24:55.307Z,1000.7
2019-01-12T10:25:56.698Z,1000.6
2019-01-12T10:26:58.605Z,1000.7
2019-01-12T10:27:59.391Z,1000.7
2019-01-12T10:29:00.756Z,1000.6
2019-01-12T10:30:02.125Z,1000.6
2019-01-12T10:31:03.489Z,1000.6
2019-01-12T10:32:04.857Z,1000.6
2019-01-12T10:33:06.231Z,1000.6
2019-01-12T10:34:07.639Z,1000.6
2019-01-12T10:35:09.005Z,1000.5
2019-01-12T10:36:10.383Z,1000.6
2019-01-12T10:37:11.744Z,1000.6
2019-01-12T10:38:13.109Z,1000.6
2019-01-12T10:39:17.890Z,1000.5
2019-01-12T10:40:16.529Z,1000.5
2019-01-12T10:41:17.904Z,1000.6
2019-01-12T10:42:19.281Z,1000.6
2019-01-12T10:43:21.103Z,1000.6
2019-01-12T10:44:22.463Z,1000.6
2019-01-12T10:45:23.838Z,1000.5
2019-01-12T10:46:25.218Z,1000.5
2019-01-12T10:47:26.584Z,1000.5
2019-01-12T10:48:28.155Z,1000.4
2019-01-12T10:49:29.493Z,1000.5
2019-01-12T10:50:30.860Z,1000.4
2019-01-12T10:51:32.238Z,1000.5
2019-01-12T10:52:33.896Z,1000.4
2019-01-12T10:53:35.090Z,1000.4
2019-01-12T10:54:36.488Z,1000.3
2019-01-12T10:55:37.849Z,1000.3
2019-01-12T10:56:39.240Z,1000.2
2019-01-12T10:57:40.614Z,1000.2
2019-01-12T10:58:41.987Z,1000.2
2019-01-12T10:59:43.404Z,1000.2
2019-01-12T11:00:44.784Z,1000.2
2019-01-12T11:01:46.299Z,1000.2
2019-01-12T11:02:47.700Z,1000.2
2019-01-12T11:03:49.068Z,1000.1
2019-01-12T11:04:50.432Z,1000.1
2019-01-12T11:05:51.809Z,1000.1
2019-01-12T11:06:53.175Z,1000.2
2019-01-12T11:07:54.555Z,1000.0
2019-01-12T11:08:55.922Z,1000.0
2019-01-12T11:10:03.873Z,1000.2
2019-01-12T11:10:58.660Z,1000.2
2019-01-12T11:12:00.022Z,1000.2
2019-01-12T11:13:01.391Z,1000.2
2019-01-12T11:14:02.756Z,1000.3
2019-01-12T11:15:04.128Z,1000.3
2019-01-12T11:16:05.503Z,1000.3
2019-01-12T11:17:06.881Z,1000.4
2019-01-12T11:18:08.256Z,1000.4
2019-01-12T11:19:09.628Z,1000.4
2019-01-12T11:20:11.004Z,1000.3
2019-01-12T11:21:12.367Z,1000.4
2019-01-12T11:22:13.757Z,1000.4
2019-01-12T11:23:15.125Z,1000.4
2019-01-12T11:24:16.500Z,1000.4
2019-01-12T11:25:17.868Z,1000.4
2019-01-12T11:26:19.262Z,1000.3
2019-01-12T11:27:20.607Z,1000.2
2019-01-12T11:28:21.975Z,1000.2
2019-01-12T11:29:23.346Z,1000.2
2019-01-12T11:30:24.713Z,1000.2
2019-01-12T11:31:26.081Z,1000.1
2019-01-12T11:32:27.451Z,1000.2
2019-01-12T11:33:28.819Z,1000.1
2019-01-12T11:34:30.224Z,1000.1
2019-01-12T11:35:31.598Z,1000.1
2019-01-12T11:36:32.974Z,1000.1
2019-01-12T11:37:34.390Z,1000.1
2019-01-12T11:38:35.778Z,1000.0
2019-01-12T11:39:37.177Z,1000.0
2019-01-12T11:40:38.549Z,1000.0
2019-01-12T11:41:39.912Z,1000.0
2019-01-12T11:42:41.279Z,999.9
2019-01-12T11:43:42.658Z,999.9
2019-01-12T11:44:44.022Z,999.8
2019-01-12T11:45:45.389Z,999.7
2019-01-12T11:46:46.748Z,999.7
2019-01-12T11:47:48.117Z,999.7
2019-01-12T11:48:49.480Z,999.7
2019-01-12T11:49:50.859Z,999.7
2019-01-12T11:50:52.223Z,999.6
2019-01-12T11:51:53.592Z,999.5
2019-01-12T11:52:54.951Z,999.5
2019-01-12T11:53:56.326Z,999.5
2019-01-12T11:54:57.698Z,999.5
2019-01-12T11:55:59.067Z,999.5
2019-01-12T11:57:00.443Z,999.5
2019-01-12T11:58:01.816Z,999.4
2019-01-12T11:59:03.177Z,999.4
2019-01-12T12:00:04.540Z,999.4
2019-01-12T12:01:05.906Z,999.4
2019-01-12T12:02:07.282Z,999.4
2019-01-12T12:03:08.664Z,999.4
2019-01-12T12:04:10.027Z,999.4
2019-01-12T12:05:11.397Z,999.4
2019-01-12T12:06:12.765Z,999.4
2019-01-12T12:07:14.134Z,999.3
2019-01-12T12:08:15.495Z,999.4
2019-01-12T12:09:16.866Z,999.4
2019-01-12T12:10:18.237Z,999.3
2019-01-12T12:11:19.606Z,999.3
2019-01-12T12:12:20.976Z,999.3
2019-01-12T12:13:22.336Z,999.3
2019-01-12T12:14:23.713Z,999.3
2019-01-12T12:15:25.071Z,999.3
2019-01-12T12:16:26.434Z,999.3
2019-01-12T12:17:27.800Z,999.3
2019-01-12T12:18:29.168Z,999.3
2019-01-12T12:19:30.533Z,999.2
2019-01-12T12:20:31.900Z,999.2
2019-01-12T12:21:33.266Z,999.3
2019-01-12T12:22:34.638Z,999.3
2019-01-12T12:23:36.008Z,999.3
2019-01-12T12:24:37.379Z,999.3
2019-01-12T12:25:39.219Z,999.2
2019-01-12T12:26:40.601Z,999.2
2019-01-12T12:27:41.967Z,999.2
2019-01-12T12:28:43.323Z,999.2
2019-01-12T12:29:44.691Z,999.2
2019-01-12T12:30:46.059Z,999.2
2019-01-12T12:31:47.422Z,999.1
2019-01-12T12:32:48.790Z,999.2
2019-01-12T12:33:50.159Z,999.2
2019-01-12T12:34:51.531Z,999.1
2019-01-12T12:35:52.893Z,999.1
2019-01-12T12:36:54.258Z,999.2
2019-01-12T12:37:55.629Z,999.1
2019-01-12T12:38:56.997Z,999.0
2019-01-12T12:39:58.355Z,999.1
2019-01-12T12:40:59.724Z,999.0
2019-01-12T12:42:01.096Z,999.0
2019-01-12T12:43:02.470Z,999.0
2019-01-12T12:44:03.847Z,999.0
2019-01-12T12:45:05.219Z,999.0
2019-01-12T12:46:06.584Z,999.0
2019-01-12T12:47:07.946Z,999.0
2019-01-12T12:48:09.333Z,998.9